^^
Station Historical Data
Daily Summary for January 6, 2018 Units:  Both    English   Metric
« Previous Day
Next Day »
Daily Weekly Monthly Yearly Custom
  High: Low: Average:
Temperature: TemperatureF °F /  -17.8 °C 77.9 °F /  25.5 °C 81.8 °F /  27.7 °C
Dew Point: DewpointF °F /  -17.8 °C 38.8 °F /  3.8 °C 41.1 °F /  5.1 °C
Humidity: Humidity% 20% 23%
Wind Speed: WindSpeedMPHmph /  0km/h - -35.3mph /  -56.8km/h
Wind Gust: WindSpeedGustMPHmph /  0km/h - -
Wind- -
Pressure: PressureIn in /  0 hPa 30.04 in /  1017.2 hPa -
Precipitation: 0.00 in /  0 mm    
Historical Graphs
 
 
Tabular Data for January 6, 2018
Time Temperature Dew Point Pressure Wind Wind Speed Wind Gust Humidity Rainfall Rate (Hourly) solar Conditions
TemperatureF °F /  -17.8 °C DewpointF °F /  -17.8 °C PressureInin /  0hPa Calm     Humidity% HourlyPrecipInin /  0mm SoftwareType W/m2 Conditions
08:58 78.1 °F /  25.6 °C 43.2 °F /  6.2 °C 30.16in /  1021.2hPa NE 4.0mph /  6.4km/h 5.0mph /  8km/h 29% 0.00in /  0mm meteobridge W/m2
09:04 78.1 °F /  25.6 °C 44.1 °F /  6.7 °C 30.16in /  1021.2hPa NNE 0.9mph /  1.4km/h 5.0mph /  8km/h 30% 0.00in /  0mm meteobridge W/m2
09:11 77.9 °F /  25.5 °C 42.3 °F /  5.7 °C 30.16in /  1021.2hPa NE 4.9mph /  7.9km/h 10.0mph /  16.1km/h 28% 0.00in /  0mm meteobridge W/m2
09:17 77.9 °F /  25.5 °C 43.2 °F /  6.2 °C 30.16in /  1021.2hPa North 2.9mph /  4.7km/h 15.0mph /  24.1km/h 29% 0.00in /  0mm meteobridge W/m2
09:23 78.6 °F /  25.9 °C 42.8 °F /  6 °C 30.16in /  1021.2hPa NE 6.0mph /  9.7km/h 9.0mph /  14.5km/h 28% 0.00in /  0mm meteobridge W/m2
09:29 78.6 °F /  25.9 °C 42.8 °F /  6 °C 30.16in /  1021.2hPa NE 4.0mph /  6.4km/h 7.0mph /  11.3km/h 28% 0.00in /  0mm meteobridge W/m2
09:35 79.0 °F /  26.1 °C 43.2 °F /  6.2 °C 30.16in /  1021.2hPa NE 4.0mph /  6.4km/h 6.0mph /  9.7km/h 28% 0.00in /  0mm meteobridge W/m2
09:41 79.7 °F /  26.5 °C 43.7 °F /  6.5 °C 30.16in /  1021.2hPa East 0.9mph /  1.4km/h 4.0mph /  6.4km/h 28% 0.00in /  0mm meteobridge W/m2
09:50 80.4 °F /  26.9 °C 42.4 °F /  5.8 °C 30.16in /  1021.2hPa SSW 2.9mph /  4.7km/h 9.0mph /  14.5km/h 26% 0.00in /  0mm meteobridge W/m2
10:00 81.7 °F /  27.6 °C 43.5 °F /  6.4 °C 30.16in /  1021.2hPa Calm   3.0mph /  4.8km/h 26% 0.00in /  0mm meteobridge W/m2
10:06 82.9 °F /  28.3 °C 43.5 °F /  6.4 °C 30.17in /  1021.6hPa NE 6.0mph /  9.7km/h 10.0mph /  16.1km/h 25% 0.00in /  0mm meteobridge W/m2
10:12 82.6 °F /  28.1 °C 42.1 °F /  5.6 °C 30.16in /  1021.2hPa NNE 6.0mph /  9.7km/h 14.0mph /  22.5km/h 24% 0.00in /  0mm meteobridge W/m2
10:18 81.5 °F /  27.5 °C 42.3 °F /  5.7 °C 30.17in /  1021.6hPa South 2.9mph /  4.7km/h 5.0mph /  8km/h 25% 0.00in /  0mm meteobridge W/m2
10:26 80.1 °F /  26.7 °C 42.1 °F /  5.6 °C 30.17in /  1021.6hPa SSW 4.9mph /  7.9km/h 12.0mph /  19.3km/h 26% 0.00in /  0mm meteobridge W/m2
10:34 81.1 °F /  27.3 °C 43.0 °F /  6.1 °C 30.16in /  1021.2hPa WSW 4.0mph /  6.4km/h 6.0mph /  9.7km/h 26% 0.00in /  0mm meteobridge W/m2
10:40 82.8 °F /  28.2 °C 43.3 °F /  6.3 °C 30.16in /  1021.2hPa NNE 10.1mph /  16.3km/h 11.0mph /  17.7km/h 25% 0.00in /  0mm meteobridge W/m2
10:47 82.8 °F /  28.2 °C 42.3 °F /  5.7 °C 30.16in /  1021.2hPa NNE 15.0mph /  24.1km/h 18.0mph /  29km/h 24% 0.00in /  0mm meteobridge W/m2
10:53 81.5 °F /  27.5 °C 41.2 °F /  5.1 °C 30.16in /  1021.2hPa North 16.1mph /  25.9km/h 23.0mph /  37km/h 24% 0.00in /  0mm meteobridge W/m2
10:59 80.6 °F /  27 °C 41.5 °F /  5.3 °C 30.16in /  1021.2hPa NE 8.1mph /  13km/h 14.0mph /  22.5km/h 25% 0.00in /  0mm meteobridge W/m2
11:07 82.2 °F /  27.9 °C 41.9 °F /  5.5 °C 30.16in /  1021.2hPa SE 2.0mph /  3.2km/h 5.0mph /  8km/h 24% 0.00in /  0mm meteobridge W/m2
11:13 83.7 °F /  28.7 °C 43.0 °F /  6.1 °C 30.16in /  1021.2hPa South 8.9mph /  14.3km/h 15.0mph /  24.1km/h 24% 0.00in /  0mm meteobridge W/m2
11:21 82.0 °F /  27.8 °C 41.7 °F /  5.4 °C 30.16in /  1021.2hPa SSW 2.0mph /  3.2km/h 11.0mph /  17.7km/h 24% 0.00in /  0mm meteobridge W/m2
11:27 83.5 °F /  28.6 °C 43.0 °F /  6.1 °C 30.16in /  1021.2hPa ESE 2.9mph /  4.7km/h 4.0mph /  6.4km/h 24% 0.00in /  0mm meteobridge W/m2
11:34 83.8 °F /  28.8 °C 42.1 °F /  5.6 °C 30.16in /  1021.2hPa North 14.1mph /  22.7km/h 14.1mph /  22.7km/h 23% 0.00in /  0mm meteobridge W/m2
11:40 82.4 °F /  28 °C 41.9 °F /  5.5 °C 30.16in /  1021.2hPa NNE 6.0mph /  9.7km/h 19.0mph /  30.6km/h 24% 0.00in /  0mm meteobridge W/m2
11:46 81.3 °F /  27.4 °C 41.0 °F /  5 °C 30.15in /  1020.9hPa ENE 2.0mph /  3.2km/h 7.0mph /  11.3km/h 24% 0.00in /  0mm meteobridge W/m2
11:52 83.3 °F /  28.5 °C 41.7 °F /  5.4 °C 30.15in /  1020.9hPa Calm   4.0mph /  6.4km/h 23% 0.00in /  0mm meteobridge W/m2
11:58 84.0 °F /  28.9 °C 42.3 °F /  5.7 °C 30.14in /  1020.5hPa SE 2.9mph /  4.7km/h 4.0mph /  6.4km/h 23% 0.00in /  0mm meteobridge W/m2
12:04 85.1 °F /  29.5 °C 43.2 °F /  6.2 °C 30.14in /  1020.5hPa ENE 4.0mph /  6.4km/h 4.0mph /  6.4km/h 23% 0.00in /  0mm meteobridge W/m2
12:12 85.8 °F /  29.9 °C 42.6 °F /  5.9 °C 30.13in /  1020.2hPa SW 0.9mph /  1.4km/h 2.0mph /  3.2km/h 22% 0.00in /  0mm meteobridge W/m2
12:20 83.3 °F /  28.5 °C 41.7 °F /  5.4 °C 30.13in /  1020.2hPa East 0.9mph /  1.4km/h 6.0mph /  9.7km/h 23% 0.00in /  0mm meteobridge W/m2
12:27 82.6 °F /  28.1 °C 41.0 °F /  5 °C 30.13in /  1020.2hPa NW 2.0mph /  3.2km/h 5.0mph /  8km/h 23% 0.00in /  0mm meteobridge W/m2
12:33 82.6 °F /  28.1 °C 41.0 °F /  5 °C 30.13in /  1020.2hPa SSE 4.9mph /  7.9km/h 5.0mph /  8km/h 23% 0.00in /  0mm meteobridge W/m2
12:39 84.4 °F /  29.1 °C 42.6 °F /  5.9 °C 30.13in /  1020.2hPa SE 2.9mph /  4.7km/h 10.0mph /  16.1km/h 23% 0.00in /  0mm meteobridge W/m2
12:45 84.4 °F /  29.1 °C 41.4 °F /  5.2 °C 30.12in /  1019.9hPa East 2.9mph /  4.7km/h 5.0mph /  8km/h 22% 0.00in /  0mm meteobridge W/m2
12:53 82.6 °F /  28.1 °C 41.0 °F /  5 °C 30.12in /  1019.9hPa NNE 14.1mph /  22.7km/h 18.0mph /  29km/h 23% 0.00in /  0mm meteobridge W/m2
12:59 81.3 °F /  27.4 °C 39.9 °F /  4.4 °C 30.12in /  1019.9hPa North 2.9mph /  4.7km/h 11.0mph /  17.7km/h 23% 0.00in /  0mm meteobridge W/m2
13:05 81.5 °F /  27.5 °C 41.2 °F /  5.1 °C 30.11in /  1019.5hPa NE 2.9mph /  4.7km/h 5.0mph /  8km/h 24% 0.00in /  0mm meteobridge W/m2
13:13 81.7 °F /  27.6 °C 40.3 °F /  4.6 °C 30.12in /  1019.9hPa North 6.9mph /  11.1km/h 14.0mph /  22.5km/h 23% 0.00in /  0mm meteobridge W/m2
13:20 81.3 °F /  27.4 °C 39.9 °F /  4.4 °C 30.11in /  1019.5hPa North 10.1mph /  16.3km/h 16.0mph /  25.7km/h 23% 0.00in /  0mm meteobridge W/m2
13:26 81.0 °F /  27.2 °C 40.8 °F /  4.9 °C 30.11in /  1019.5hPa North 4.9mph /  7.9km/h 9.0mph /  14.5km/h 24% 0.00in /  0mm meteobridge W/m2
13:32 81.5 °F /  27.5 °C 41.2 °F /  5.1 °C 30.11in /  1019.5hPa NNE 8.9mph /  14.3km/h 9.0mph /  14.5km/h 24% 0.00in /  0mm meteobridge W/m2
13:38 81.9 °F /  27.7 °C 40.5 °F /  4.7 °C 30.11in /  1019.5hPa NNE 2.9mph /  4.7km/h 3.0mph /  4.8km/h 23% 0.00in /  0mm meteobridge W/m2
13:44 82.8 °F /  28.2 °C 41.2 °F /  5.1 °C 30.11in /  1019.5hPa NNE 0.9mph /  1.4km/h 2.0mph /  3.2km/h 23% 0.00in /  0mm meteobridge W/m2
13:50 83.3 °F /  28.5 °C 41.7 °F /  5.4 °C 30.11in /  1019.5hPa East 2.9mph /  4.7km/h 4.0mph /  6.4km/h 23% 0.00in /  0mm meteobridge W/m2
13:56 82.9 °F /  28.3 °C 41.4 °F /  5.2 °C 30.11in /  1019.5hPa NE 8.1mph /  13km/h 11.0mph /  17.7km/h 23% 0.00in /  0mm meteobridge W/m2
14:02 82.0 °F /  27.8 °C 40.6 °F /  4.8 °C 30.11in /  1019.5hPa NNE 10.1mph /  16.3km/h 10.1mph /  16.3km/h 23% 0.00in /  0mm meteobridge W/m2
14:08 81.7 °F /  27.6 °C 40.3 °F /  4.6 °C 30.11in /  1019.5hPa NNE 4.9mph /  7.9km/h 9.0mph /  14.5km/h 23% 0.00in /  0mm meteobridge W/m2
14:15 81.9 °F /  27.7 °C 40.5 °F /  4.7 °C 30.11in /  1019.5hPa NNW 4.0mph /  6.4km/h 9.0mph /  14.5km/h 23% 0.00in /  0mm meteobridge W/m2
14:21 82.0 °F /  27.8 °C 40.6 °F /  4.8 °C 30.10in /  1019.2hPa North 6.9mph /  11.1km/h 9.0mph /  14.5km/h 23% 0.00in /  0mm meteobridge W/m2
14:29 82.6 °F /  28.1 °C 41.0 °F /  5 °C 30.10in /  1019.2hPa North 6.0mph /  9.7km/h 10.0mph /  16.1km/h 23% 0.00in /  0mm meteobridge W/m2
14:35 82.4 °F /  28 °C 40.8 °F /  4.9 °C 30.10in /  1019.2hPa NNE 0.9mph /  1.4km/h 3.0mph /  4.8km/h 23% 0.00in /  0mm meteobridge W/m2
14:43 83.3 °F /  28.5 °C 40.5 °F /  4.7 °C 30.10in /  1019.2hPa SE 0.9mph /  1.4km/h 3.0mph /  4.8km/h 22% 0.00in /  0mm meteobridge W/m2
14:49 84.0 °F /  28.9 °C 41.0 °F /  5 °C 30.09in /  1018.8hPa Calm   1.0mph /  1.6km/h 22% 0.00in /  0mm meteobridge W/m2
14:56 84.4 °F /  29.1 °C 41.4 °F /  5.2 °C 30.09in /  1018.8hPa WSW 0.9mph /  1.4km/h 2.0mph /  3.2km/h 22% 0.00in /  0mm meteobridge W/m2
15:02 84.2 °F /  29 °C 41.2 °F /  5.1 °C 30.09in /  1018.8hPa North 0.9mph /  1.4km/h 4.0mph /  6.4km/h 22% 0.00in /  0mm meteobridge W/m2
15:08 84.7 °F /  29.3 °C 41.7 °F /  5.4 °C 30.09in /  1018.8hPa SE 4.0mph /  6.4km/h 4.0mph /  6.4km/h 22% 0.00in /  0mm meteobridge W/m2
15:14 85.8 °F /  29.9 °C 41.4 °F /  5.2 °C 30.08in /  1018.5hPa NE 2.0mph /  3.2km/h 5.0mph /  8km/h 21% 0.00in /  0mm meteobridge W/m2
15:20 88.0 °F /  31.1 °C 41.9 °F /  5.5 °C 30.08in /  1018.5hPa NE 4.0mph /  6.4km/h 6.0mph /  9.7km/h 20% 0.00in /  0mm meteobridge W/m2
15:27 87.1 °F /  30.6 °C 42.4 °F /  5.8 °C 30.08in /  1018.5hPa NNE 2.0mph /  3.2km/h 6.0mph /  9.7km/h 21% 0.00in /  0mm meteobridge W/m2
15:33 86.5 °F /  30.3 °C 41.9 °F /  5.5 °C 30.07in /  1018.2hPa ESE 0.9mph /  1.4km/h 9.0mph /  14.5km/h 21% 0.00in /  0mm meteobridge W/m2
15:39 85.8 °F /  29.9 °C 41.4 °F /  5.2 °C 30.07in /  1018.2hPa NNE 11.0mph /  17.7km/h 12.0mph /  19.3km/h 21% 0.00in /  0mm meteobridge W/m2
15:47 83.8 °F /  28.8 °C 41.0 °F /  5 °C 30.07in /  1018.2hPa ENE 0.9mph /  1.4km/h 7.0mph /  11.3km/h 22% 0.00in /  0mm meteobridge W/m2
15:53 83.8 °F /  28.8 °C 39.7 °F /  4.3 °C 30.07in /  1018.2hPa North 4.9mph /  7.9km/h 9.0mph /  14.5km/h 21% 0.00in /  0mm meteobridge W/m2
15:59 83.8 °F /  28.8 °C 41.0 °F /  5 °C 30.06in /  1017.8hPa NNE 6.0mph /  9.7km/h 6.0mph /  9.7km/h 22% 0.00in /  0mm meteobridge W/m2
16:06 84.6 °F /  29.2 °C 40.3 °F /  4.6 °C 30.06in /  1017.8hPa NNE 8.9mph /  14.3km/h 11.0mph /  17.7km/h 21% 0.00in /  0mm meteobridge W/m2
16:14 83.5 °F /  28.6 °C 40.6 °F /  4.8 °C 30.06in /  1017.8hPa NNE 4.0mph /  6.4km/h 6.0mph /  9.7km/h 22% 0.00in /  0mm meteobridge W/m2
16:20 83.7 °F /  28.7 °C 40.8 °F /  4.9 °C 30.06in /  1017.8hPa NE 2.9mph /  4.7km/h 7.0mph /  11.3km/h 22% 0.00in /  0mm meteobridge W/m2
16:31 84.6 °F /  29.2 °C 41.5 °F /  5.3 °C 30.06in /  1017.8hPa NNE 2.9mph /  4.7km/h 6.0mph /  9.7km/h 22% 0.00in /  0mm meteobridge W/m2
16:36 84.7 °F /  29.3 °C 40.5 °F /  4.7 °C 30.06in /  1017.8hPa North 4.0mph /  6.4km/h 10.0mph /  16.1km/h 21% 0.00in /  0mm meteobridge W/m2
16:42 84.4 °F /  29.1 °C 41.4 °F /  5.2 °C 30.06in /  1017.8hPa NNW 8.9mph /  14.3km/h 12.0mph /  19.3km/h 22% 0.00in /  0mm meteobridge W/m2
16:46 84.0 °F /  28.9 °C 39.9 °F /  4.4 °C 30.06in /  1017.8hPa NNE 4.9mph /  7.9km/h 9.0mph /  14.5km/h 21% 0.00in /  0mm meteobridge W/m2
16:48 84.0 °F /  28.9 °C 41.0 °F /  5 °C 30.06in /  1017.8hPa NNE 4.0mph /  6.4km/h 9.0mph /  14.5km/h 22% 0.00in /  0mm meteobridge W/m2
16:57 84.2 °F /  29 °C 41.2 °F /  5.1 °C 30.05in /  1017.5hPa Calm   2.0mph /  3.2km/h 22% 0.00in /  0mm meteobridge W/m2
17:03 84.4 °F /  29.1 °C 40.1 °F /  4.5 °C 30.05in /  1017.5hPa NNE 4.0mph /  6.4km/h 6.0mph /  9.7km/h 21% 0.00in /  0mm meteobridge W/m2
17:11 84.2 °F /  29 °C 41.2 °F /  5.1 °C 30.05in /  1017.5hPa NNE 2.0mph /  3.2km/h 5.0mph /  8km/h 22% 0.00in /  0mm meteobridge W/m2
17:17 83.8 °F /  28.8 °C 39.7 °F /  4.3 °C 30.05in /  1017.5hPa NNE 2.9mph /  4.7km/h 5.0mph /  8km/h 21% 0.00in /  0mm meteobridge W/m2
17:25 83.8 °F /  28.8 °C 41.0 °F /  5 °C 30.05in /  1017.5hPa NNE 4.9mph /  7.9km/h 6.0mph /  9.7km/h 22% 0.00in /  0mm meteobridge W/m2
17:31 84.2 °F /  29 °C 40.1 °F /  4.5 °C 30.04in /  1017.2hPa NE 4.0mph /  6.4km/h 11.0mph /  17.7km/h 21% 0.00in /  0mm meteobridge W/m2
17:39 84.4 °F /  29.1 °C 40.1 °F /  4.5 °C 30.04in /  1017.2hPa NNE 8.9mph /  14.3km/h 10.0mph /  16.1km/h 21% 0.00in /  0mm meteobridge W/m2
17:47 83.8 °F /  28.8 °C 39.7 °F /  4.3 °C 30.05in /  1017.5hPa NNE 2.9mph /  4.7km/h 4.0mph /  6.4km/h 21% 0.00in /  0mm meteobridge W/m2
17:54 84.0 °F /  28.9 °C 39.9 °F /  4.4 °C 30.04in /  1017.2hPa Calm   1.0mph /  1.6km/h 21% 0.00in /  0mm meteobridge W/m2
18:00 84.2 °F /  29 °C 40.1 °F /  4.5 °C 30.04in /  1017.2hPa North 4.0mph /  6.4km/h 11.0mph /  17.7km/h 21% 0.00in /  0mm meteobridge W/m2
18:06 83.7 °F /  28.7 °C 39.6 °F /  4.2 °C 30.05in /  1017.5hPa North 2.0mph /  3.2km/h 2.0mph /  3.2km/h 21% 0.00in /  0mm meteobridge W/m2
18:12 83.7 °F /  28.7 °C 39.6 °F /  4.2 °C 30.05in /  1017.5hPa NNE 4.0mph /  6.4km/h 11.0mph /  17.7km/h 21% 0.00in /  0mm meteobridge W/m2
18:20 82.9 °F /  28.3 °C 39.0 °F /  3.9 °C 30.05in /  1017.5hPa NNE 8.9mph /  14.3km/h 10.0mph /  16.1km/h 21% 0.00in /  0mm meteobridge W/m2
18:26 82.8 °F /  28.2 °C 38.8 °F /  3.8 °C 30.05in /  1017.5hPa NNE 2.0mph /  3.2km/h 9.0mph /  14.5km/h 21% 0.00in /  0mm meteobridge W/m2
18:34 82.8 °F /  28.2 °C 38.8 °F /  3.8 °C 30.05in /  1017.5hPa NE 2.0mph /  3.2km/h 7.0mph /  11.3km/h 21% 0.00in /  0mm meteobridge W/m2
18:40 82.8 °F /  28.2 °C 38.8 °F /  3.8 °C 30.06in /  1017.8hPa NE 4.0mph /  6.4km/h 6.0mph /  9.7km/h 21% 0.00in /  0mm meteobridge W/m2
18:49 82.8 °F /  28.2 °C 38.8 °F /  3.8 °C 30.06in /  1017.8hPa Calm   5.0mph /  8km/h 21% 0.00in /  0mm meteobridge W/m2
18:59 82.6 °F /  28.1 °C 39.9 °F /  4.4 °C 30.06in /  1017.8hPa Calm   2.0mph /  3.2km/h 22% 0.00in /  0mm meteobridge W/m2
19:05 82.2 °F /  27.9 °C 41.9 °F /  5.5 °C 30.06in /  1017.8hPa SSW 8.1mph /  13km/h 12.0mph /  19.3km/h 24% 0.00in /  0mm meteobridge W/m2
19:11 80.4 °F /  26.9 °C 45.3 °F /  7.4 °C 30.06in /  1017.8hPa South 8.9mph /  14.3km/h 14.0mph /  22.5km/h 29% 0.00in /  0mm meteobridge W/m2
19:17 79.9 °F /  26.6 °C 44.8 °F /  7.1 °C 30.06in /  1017.8hPa South 10.1mph /  16.3km/h 15.0mph /  24.1km/h 29% 0.00in /  0mm meteobridge W/m2
19:24 79.5 °F /  26.4 °C 44.4 °F /  6.9 °C 30.06in /  1017.8hPa SSE 6.0mph /  9.7km/h 6.0mph /  9.7km/h 29% 0.00in /  0mm meteobridge W/m2
19:30 79.5 °F /  26.4 °C 44.4 °F /  6.9 °C 30.07in /  1018.2hPa SSE 6.0mph /  9.7km/h -999.0mph /  -1607.7km/h 29% 0.00in /  0mm meteobridge W/m2
19:45 79.5 °F /  26.4 °C 44.4 °F /  6.9 °C 30.07in /  1018.2hPa North -999.9mph /  -1609.1km/h -999.0mph /  -1607.7km/h 29% 0.00in /  0mm meteobridge W/m2
19:53 79.5 °F /  26.4 °C 44.4 °F /  6.9 °C 30.08in /  1018.5hPa North -999.9mph /  -1609.1km/h -999.0mph /  -1607.7km/h 29% 0.00in /  0mm meteobridge W/m2
20:00 79.5 °F /  26.4 °C 44.4 °F /  6.9 °C 30.07in /  1018.2hPa North -999.9mph /  -1609.1km/h -999.0mph /  -1607.7km/h 29% 0.00in /  0mm meteobridge W/m2
20:05 79.5 °F /  26.4 °C 44.4 °F /  6.9 °C 30.07in /  1018.2hPa North -999.9mph /  -1609.1km/h -999.0mph /  -1607.7km/h 29% 0.00in /  0mm meteobridge W/m2
Regenstein, Windhoek, Namibia
Compliments of Weather Underground - 2.5 mb